TimeHST,TemperatureF,Dew PointF,Humidity,Sea Level PressureIn,VisibilityMPH,Wind Direction,Wind SpeedMPH,Gust SpeedMPH,PrecipitationIn,Events,Conditions,WindDirDegrees,DateUTC
12:57 AM,71.6,70.0,95,30.09,10.0,NE,11.5,18.4,N/A,,Mostly Cloudy,50,2013-05-11 10:57:00
1:57 AM,-9999,-9999,N/A,30.07,10.0,NE,12.7,17.3,N/A,,Overcast,50,2013-05-11 11:57:00
2:57 AM,-9999,-9999,N/A,30.06,10.0,NE,10.4,-,N/A,,Mostly Cloudy,40,2013-05-11 12:57:00
3:32 AM,-9999,-9999,N/A,30.07,6.2,NE,12.7,-,N/A,,Overcast,50,2013-05-11 13:32:00
3:45 AM,-9999,-9999,N/A,-9999,-9999.0,North,-9999.0,-,N/A,,Unknown,0,2013-05-11 13:45:00
3:57 AM,-9999,-9999,N/A,30.06,10.0,NE,10.4,17.3,N/A,,Overcast,50,2013-05-11 13:57:00
4:57 AM,71.6,68.0,88,30.06,10.0,NE,10.4,-,N/A,,Mostly Cloudy,40,2013-05-11 14:57:00
5:41 AM,71.6,68.0,88,30.08,6.2,NE,11.5,-,N/A,,Mostly Cloudy,50,2013-05-11 15:41:00
5:57 AM,71.6,68.0,88,30.07,10.0,NE,10.4,-,N/A,,Mostly Cloudy,50,2013-05-11 15:57:00
6:04 AM,-9999,-9999,N/A,30.08,6.2,NE,12.7,-,N/A,,Partly Cloudy,50,2013-05-11 16:04:00
6:11 AM,73.4,68.0,83,30.09,6.2,NE,12.7,-,N/A,,Mostly Cloudy,40,2013-05-11 16:11:00
6:45 AM,73.4,68.0,83,30.10,6.2,NE,11.5,18.4,N/A,,Overcast,40,2013-05-11 16:45:00
6:57 AM,73.4,68.0,83,30.09,10.0,NE,11.5,-,N/A,,Overcast,50,2013-05-11 16:57:00
7:57 AM,73.4,68.0,83,30.09,10.0,NE,9.2,-,N/A,,Scattered Clouds,40,2013-05-11 17:57:00
8:57 AM,77.9,68.0,71,30.11,10.0,NE,9.2,-,N/A,,Mostly Cloudy,50,2013-05-11 18:57:00
9:57 AM,79.5,66.9,65,30.11,10.0,NE,9.2,-,N/A,,Mostly Cloudy,40,2013-05-11 19:57:00
10:57 AM,80.8,66.0,61,30.11,10.0,NE,9.2,-,N/A,,Mostly Cloudy,50,2013-05-11 20:57:00
11:57 AM,79.9,66.9,64,30.10,10.0,NNE,10.4,-,N/A,,Mostly Cloudy,30,2013-05-11 21:57:00
12:57 PM,80.2,66.9,64,30.08,10.0,NE,9.2,-,N/A,,Mostly Cloudy,40,2013-05-11 22:57:00
1:57 PM,81.9,66.0,59,30.07,10.0,NE,9.2,-,N/A,,Mostly Cloudy,40,2013-05-11 23:57:00
2:57 PM,79.5,66.0,63,30.06,10.0,NNE,11.5,-,N/A,,Mostly Cloudy,30,2013-05-12 00:57:00
3:57 PM,78.6,66.0,65,30.04,10.0,NE,11.5,-,N/A,,Mostly Cloudy,40,2013-05-12 01:57:00
4:57 PM,76.3,68.0,75,30.04,10.0,NE,16.1,23.0,N/A,,Mostly Cloudy,40,2013-05-12 02:57:00
5:57 PM,75.2,70.0,84,30.06,10.0,NE,12.7,21.9,N/A,,Mostly Cloudy,50,2013-05-12 03:57:00
6:57 PM,74.7,70.0,85,30.08,10.0,NE,11.5,19.6,N/A,,Mostly Cloudy,50,2013-05-12 04:57:00
7:57 PM,74.7,68.0,80,30.10,10.0,NE,15.0,23.0,N/A,,Mostly Cloudy,40,2013-05-12 05:57:00
8:57 PM,74.3,68.0,81,30.12,10.0,NE,12.7,21.9,N/A,,Overcast,40,2013-05-12 06:57:00
9:57 PM,74.1,66.9,78,30.12,10.0,NE,13.8,20.7,N/A,,Overcast,50,2013-05-12 07:57:00
10:57 PM,74.5,66.9,77,30.13,10.0,ENE,12.7,19.6,N/A,,Overcast,60,2013-05-12 08:57:00
11:57 PM,74.1,68.0,81,30.12,10.0,NE,9.2,17.3,N/A,,Overcast,50,2013-05-12 09:57:00